sensor_id;sensor_type;location;lat;lon;timestamp;pressure;altitude;pressure_sealevel;temperature;humidity
48530;BME280;34927;37.302;-121.982;2022-11-25T00:00:47;101470.0;;;25.46;27.06
48530;BME280;34927;37.302;-121.982;2022-11-25T00:01:51;101467.0;;;25.55;27.05
48530;BME280;34927;37.302;-121.982;2022-11-25T00:02:56;101467.0;;;25.63;26.96
48530;BME280;34927;37.302;-121.982;2022-11-25T00:04:01;101468.0;;;25.68;26.92
48530;BME280;34927;37.302;-121.982;2022-11-25T00:05:06;101469.0;;;25.65;26.93
48530;BME280;34927;37.302;-121.982;2022-11-25T00:06:13;101472.0;;;25.70;26.93
48530;BME280;34927;37.302;-121.982;2022-11-25T00:07:16;101477.0;;;25.71;26.90
48530;BME280;34927;37.302;-121.982;2022-11-25T00:08:21;101483.0;;;25.59;27.08
48530;BME280;34927;37.302;-121.982;2022-11-25T00:09:26;101488.0;;;25.56;27.15
48530;BME280;34927;37.302;-121.982;2022-11-25T00:10:31;101485.0;;;25.59;27.12
48530;BME280;34927;37.302;-121.982;2022-11-25T00:11:39;101489.0;;;25.76;26.96
48530;BME280;34927;37.302;-121.982;2022-11-25T00:12:42;101491.0;;;25.61;27.16
48530;BME280;34927;37.302;-121.982;2022-11-25T00:13:47;101494.0;;;25.58;27.31
48530;BME280;34927;37.302;-121.982;2022-11-25T00:14:51;101492.0;;;25.54;27.27
48530;BME280;34927;37.302;-121.982;2022-11-25T00:16:00;101490.0;;;25.59;27.23
48530;BME280;34927;37.302;-121.982;2022-11-25T00:17:06;101492.0;;;25.44;27.33
48530;BME280;34927;37.302;-121.982;2022-11-25T00:18:11;101489.0;;;25.32;27.43
48530;BME280;34927;37.302;-121.982;2022-11-25T00:19:17;101491.0;;;25.17;27.61
48530;BME280;34927;37.302;-121.982;2022-11-25T00:20:22;101490.0;;;25.19;27.95
48530;BME280;34927;37.302;-121.982;2022-11-25T00:21:28;101492.0;;;25.13;27.68
48530;BME280;34927;37.302;-121.982;2022-11-25T00:22:32;101492.0;;;25.01;27.77
48530;BME280;34927;37.302;-121.982;2022-11-25T00:23:37;101492.0;;;25.20;27.47
48530;BME280;34927;37.302;-121.982;2022-11-25T00:24:42;101490.0;;;25.30;27.33
48530;BME280;34927;37.302;-121.982;2022-11-25T00:25:46;101492.0;;;25.04;27.42
48530;BME280;34927;37.302;-121.982;2022-11-25T00:26:52;101490.0;;;24.97;27.23
48530;BME280;34927;37.302;-121.982;2022-11-25T00:27:56;101492.0;;;25.17;26.84
48530;BME280;34927;37.302;-121.982;2022-11-25T00:29:03;101492.0;;;24.96;26.94
48530;BME280;34927;37.302;-121.982;2022-11-25T00:30:07;101492.0;;;25.06;26.55
48530;BME280;34927;37.302;-121.982;2022-11-25T00:31:14;101495.0;;;25.04;26.43
48530;BME280;34927;37.302;-121.982;2022-11-25T00:32:17;101497.0;;;25.09;26.30
48530;BME280;34927;37.302;-121.982;2022-11-25T00:33:21;101501.0;;;25.15;26.25
48530;BME280;34927;37.302;-121.982;2022-11-25T00:34:27;101501.0;;;24.99;26.38
48530;BME280;34927;37.302;-121.982;2022-11-25T00:35:34;101504.0;;;24.86;26.46
48530;BME280;34927;37.302;-121.982;2022-11-25T00:36:37;101503.0;;;24.71;26.44
48530;BME280;34927;37.302;-121.982;2022-11-25T00:37:42;101506.0;;;24.94;25.94
48530;BME280;34927;37.302;-121.982;2022-11-25T00:38:47;101503.0;;;24.84;26.03
48530;BME280;34927;37.302;-121.982;2022-11-25T00:39:56;101503.0;;;24.73;26.40
48530;BME280;34927;37.302;-121.982;2022-11-25T00:41:02;101508.0;;;24.66;26.41
48530;BME280;34927;37.302;-121.982;2022-11-25T00:42:07;101509.0;;;24.63;26.36
48530;BME280;34927;37.302;-121.982;2022-11-25T00:43:11;101510.0;;;24.57;26.43
48530;BME280;34927;37.302;-121.982;2022-11-25T00:44:18;101511.0;;;24.52;26.68
48530;BME280;34927;37.302;-121.982;2022-11-25T00:45:22;101516.0;;;24.47;26.73
48530;BME280;34927;37.302;-121.982;2022-11-25T00:46:26;101518.0;;;24.53;26.83
48530;BME280;34927;37.302;-121.982;2022-11-25T00:47:32;101517.0;;;24.48;26.83
48530;BME280;34927;37.302;-121.982;2022-11-25T00:48:36;101516.0;;;24.44;26.90
48530;BME280;34927;37.302;-121.982;2022-11-25T00:49:43;101515.0;;;24.42;26.91
48530;BME280;34927;37.302;-121.982;2022-11-25T00:50:47;101517.0;;;24.43;26.94
48530;BME280;34927;37.302;-121.982;2022-11-25T00:51:51;101517.0;;;24.41;26.84
48530;BME280;34927;37.302;-121.982;2022-11-25T00:52:57;101518.0;;;24.47;26.81
48530;BME280;34927;37.302;-121.982;2022-11-25T00:54:02;101522.0;;;24.36;26.81
48530;BME280;34927;37.302;-121.982;2022-11-25T00:55:07;101523.0;;;24.35;26.78
48530;BME280;34927;37.302;-121.982;2022-11-25T00:56:11;101523.0;;;24.29;26.79
48530;BME280;34927;37.302;-121.982;2022-11-25T00:57:17;101523.0;;;24.27;26.85
48530;BME280;34927;37.302;-121.982;2022-11-25T00:58:21;101518.0;;;24.18;27.14
48530;BME280;34927;37.302;-121.982;2022-11-25T00:59:26;101519.0;;;24.18;27.07
48530;BME280;34927;37.302;-121.982;2022-11-25T01:00:31;101521.0;;;24.20;26.90
48530;BME280;34927;37.302;-121.982;2022-11-25T01:01:37;101520.0;;;24.22;26.60
48530;BME280;34927;37.302;-121.982;2022-11-25T01:02:41;101518.0;;;24.24;26.68
48530;BME280;34927;37.302;-121.982;2022-11-25T01:03:48;101518.0;;;24.21;26.77
48530;BME280;34927;37.302;-121.982;2022-11-25T01:04:52;101521.0;;;24.21;26.68
48530;BME280;34927;37.302;-121.982;2022-11-25T01:06:01;101523.0;;;24.17;26.80
48530;BME280;34927;37.302;-121.982;2022-11-25T01:07:06;101524.0;;;24.15;26.76
48530;BME280;34927;37.302;-121.982;2022-11-25T01:08:11;101524.0;;;24.07;26.89
48530;BME280;34927;37.302;-121.982;2022-11-25T01:09:16;101526.0;;;24.09;27.14
48530;BME280;34927;37.302;-121.982;2022-11-25T01:10:21;101525.0;;;24.07;27.17
48530;BME280;34927;37.302;-121.982;2022-11-25T01:11:27;101529.0;;;24.06;27.27
48530;BME280;34927;37.302;-121.982;2022-11-25T01:12:31;101531.0;;;23.98;27.33
48530;BME280;34927;37.302;-121.982;2022-11-25T01:13:37;101531.0;;;24.00;27.28
48530;BME280;34927;37.302;-121.982;2022-11-25T01:14:41;101533.0;;;23.97;27.20
48530;BME280;34927;37.302;-121.982;2022-11-25T01:15:47;101535.0;;;23.96;27.26
48530;BME280;34927;37.302;-121.982;2022-11-25T01:16:51;101535.0;;;23.97;27.12
48530;BME280;34927;37.302;-121.982;2022-11-25T01:17:57;101537.0;;;23.96;27.13
48530;BME280;34927;37.302;-121.982;2022-11-25T01:19:01;101540.0;;;23.94;27.25
48530;BME280;34927;37.302;-121.982;2022-11-25T01:20:07;101542.0;;;23.94;27.16
48530;BME280;34927;37.302;-121.982;2022-11-25T01:21:14;101546.0;;;23.96;27.00
48530;BME280;34927;37.302;-121.982;2022-11-25T01:22:16;101548.0;;;23.96;27.15
48530;BME280;34927;37.302;-121.982;2022-11-25T01:23:22;101552.0;;;23.96;26.93
48530;BME280;34927;37.302;-121.982;2022-11-25T01:24:26;101553.0;;;23.90;27.18
48530;BME280;34927;37.302;-121.982;2022-11-25T01:25:35;101554.0;;;23.88;27.19
48530;BME280;34927;37.302;-121.982;2022-11-25T01:26:42;101557.0;;;23.89;27.34
48530;BME280;34927;37.302;-121.982;2022-11-25T01:27:47;101557.0;;;23.90;27.19
48530;BME280;34927;37.302;-121.982;2022-11-25T01:28:54;101558.0;;;23.82;27.23
48530;BME280;34927;37.302;-121.982;2022-11-25T01:29:57;101555.0;;;23.80;27.33
48530;BME280;34927;37.302;-121.982;2022-11-25T01:31:03;101556.0;;;23.82;27.35
48530;BME280;34927;37.302;-121.982;2022-11-25T01:32:06;101557.0;;;23.82;27.30
48530;BME280;34927;37.302;-121.982;2022-11-25T01:33:11;101557.0;;;23.85;27.30
48530;BME280;34927;37.302;-121.982;2022-11-25T01:34:19;101555.0;;;23.82;27.29
48530;BME280;34927;37.302;-121.982;2022-11-25T01:35:26;101554.0;;;23.76;27.29
48530;BME280;34927;37.302;-121.982;2022-11-25T01:36:32;101554.0;;;23.78;27.28
48530;BME280;34927;37.302;-121.982;2022-11-25T01:37:37;101553.0;;;23.80;27.26
48530;BME280;34927;37.302;-121.982;2022-11-25T01:38:42;101555.0;;;23.74;27.26
48530;BME280;34927;37.302;-121.982;2022-11-25T01:39:47;101554.0;;;23.72;27.35
48530;BME280;34927;37.302;-121.982;2022-11-25T01:40:51;101555.0;;;23.80;27.20
48530;BME280;34927;37.302;-121.982;2022-11-25T01:41:57;101555.0;;;23.71;27.44
48530;BME280;34927;37.302;-121.982;2022-11-25T01:43:02;101556.0;;;23.53;27.72
48530;BME280;34927;37.302;-121.982;2022-11-25T01:44:10;101555.0;;;23.56;27.65
48530;BME280;34927;37.302;-121.982;2022-11-25T01:46:40;101551.0;;;23.60;27.64
48530;BME280;34927;37.302;-121.982;2022-11-25T01:47:47;101552.0;;;23.63;27.60
48530;BME280;34927;37.302;-121.982;2022-11-25T01:48:55;101548.0;;;23.54;27.62
48530;BME280;34927;37.302;-121.982;2022-11-25T01:50:04;101549.0;;;23.58;27.57
48530;BME280;34927;37.302;-121.982;2022-11-25T01:51:15;101546.0;;;23.57;27.51
48530;BME280;34927;37.302;-121.982;2022-11-25T01:52:25;101549.0;;;23.52;27.71
48530;BME280;34927;37.302;-121.982;2022-11-25T01:53:32;101551.0;;;23.49;27.68
48530;BME280;34927;37.302;-121.982;2022-11-25T01:54:39;101551.0;;;23.44;27.80
48530;BME280;34927;37.302;-121.982;2022-11-25T01:55:49;101552.0;;;23.48;27.76
48530;BME280;34927;37.302;-121.982;2022-11-25T01:57:00;101555.0;;;23.47;27.74
48530;BME280;34927;37.302;-121.982;2022-11-25T01:58:08;101553.0;;;23.37;27.99
48530;BME280;34927;37.302;-121.982;2022-11-25T01:59:17;101553.0;;;23.38;27.93
48530;BME280;34927;37.302;-121.982;2022-11-25T02:00:22;101554.0;;;23.23;28.30
48530;BME280;34927;37.302;-121.982;2022-11-25T02:01:27;101554.0;;;23.22;28.28
48530;BME280;34927;37.302;-121.982;2022-11-25T02:02:31;101555.0;;;23.22;28.29
48530;BME280;34927;37.302;-121.982;2022-11-25T02:03:41;101556.0;;;23.17;28.36
48530;BME280;34927;37.302;-121.982;2022-11-25T02:04:47;101556.0;;;23.17;28.53
48530;BME280;34927;37.302;-121.982;2022-11-25T02:05:58;101554.0;;;23.18;28.70
48530;BME280;34927;37.302;-121.982;2022-11-25T02:07:10;101554.0;;;23.19;28.80
48530;BME280;34927;37.302;-121.982;2022-11-25T02:08:18;101555.0;;;23.39;28.44
48530;BME280;34927;37.302;-121.982;2022-11-25T02:09:22;101557.0;;;23.49;28.63
48530;BME280;34927;37.302;-121.982;2022-11-25T02:10:29;101562.0;;;23.39;28.88
48530;BME280;34927;37.302;-121.982;2022-11-25T02:11:39;101566.0;;;23.49;28.89
48530;BME280;34927;37.302;-121.982;2022-11-25T02:12:47;101568.0;;;23.29;29.47
48530;BME280;34927;37.302;-121.982;2022-11-25T02:13:52;101570.0;;;23.34;29.44
48530;BME280;34927;37.302;-121.982;2022-11-25T02:14:58;101572.0;;;23.34;30.09
48530;BME280;34927;37.302;-121.982;2022-11-25T02:16:01;101569.0;;;23.31;29.69
48530;BME280;34927;37.302;-121.982;2022-11-25T02:17:07;101569.0;;;23.35;29.71
48530;BME280;34927;37.302;-121.982;2022-11-25T02:18:11;101569.0;;;23.39;29.88
48530;BME280;34927;37.302;-121.982;2022-11-25T02:19:22;101574.0;;;23.31;30.19
48530;BME280;34927;37.302;-121.982;2022-11-25T02:20:27;101576.0;;;23.38;29.90
48530;BME280;34927;37.302;-121.982;2022-11-25T02:21:35;101576.0;;;23.42;30.05
48530;BME280;34927;37.302;-121.982;2022-11-25T02:22:49;101576.0;;;23.38;30.11
48530;BME280;34927;37.302;-121.982;2022-11-25T02:24:04;101576.0;;;23.35;30.15
48530;BME280;34927;37.302;-121.982;2022-11-25T02:25:15;101577.0;;;23.41;30.15
48530;BME280;34927;37.302;-121.982;2022-11-25T02:26:22;101576.0;;;23.41;30.33
48530;BME280;34927;37.302;-121.982;2022-11-25T02:27:27;101577.0;;;23.39;30.39
48530;BME280;34927;37.302;-121.982;2022-11-25T02:28:32;101576.0;;;23.38;30.28
48530;BME280;34927;37.302;-121.982;2022-11-25T02:29:37;101576.0;;;23.39;30.50
48530;BME280;34927;37.302;-121.982;2022-11-25T02:30:47;101576.0;;;23.39;30.47
48530;BME280;34927;37.302;-121.982;2022-11-25T02:31:51;101577.0;;;23.37;30.57
48530;BME280;34927;37.302;-121.982;2022-11-25T02:32:58;101574.0;;;23.46;30.35
48530;BME280;34927;37.302;-121.982;2022-11-25T02:34:01;101574.0;;;23.40;30.67
48530;BME280;34927;37.302;-121.982;2022-11-25T02:36:22;101578.0;;;23.32;30.81
48530;BME280;34927;37.302;-121.982;2022-11-25T02:37:28;101578.0;;;23.14;31.27
48530;BME280;34927;37.302;-121.982;2022-11-25T02:38:36;101581.0;;;23.28;31.03
48530;BME280;34927;37.302;-121.982;2022-11-25T02:39:42;101585.0;;;23.29;31.11
48530;BME280;34927;37.302;-121.982;2022-11-25T02:40:49;101583.0;;;23.19;31.23
48530;BME280;34927;37.302;-121.982;2022-11-25T02:41:59;101584.0;;;23.22;31.25
48530;BME280;34927;37.302;-121.982;2022-11-25T02:43:02;101583.0;;;23.31;31.03
48530;BME280;34927;37.302;-121.982;2022-11-25T02:44:06;101584.0;;;23.24;31.20
48530;BME280;34927;37.302;-121.982;2022-11-25T02:45:13;101584.0;;;23.27;31.13
48530;BME280;34927;37.302;-121.982;2022-11-25T02:46:23;101584.0;;;23.39;31.23
48530;BME280;34927;37.302;-121.982;2022-11-25T02:47:28;101585.0;;;23.44;31.00
48530;BME280;34927;37.302;-121.982;2022-11-25T02:48:33;101591.0;;;23.65;31.13
48530;BME280;34927;37.302;-121.982;2022-11-25T02:49:36;101595.0;;;23.69;32.23
48530;BME280;34927;37.302;-121.982;2022-11-25T02:50:42;101596.0;;;23.70;33.94
48530;BME280;34927;37.302;-121.982;2022-11-25T02:51:47;101597.0;;;23.88;34.12
48530;BME280;34927;37.302;-121.982;2022-11-25T02:52:51;101601.0;;;23.75;34.30
48530;BME280;34927;37.302;-121.982;2022-11-25T02:53:57;101600.0;;;23.61;34.55
48530;BME280;34927;37.302;-121.982;2022-11-25T02:55:02;101601.0;;;23.65;34.57
48530;BME280;34927;37.302;-121.982;2022-11-25T02:56:07;101603.0;;;23.66;34.54
48530;BME280;34927;37.302;-121.982;2022-11-25T02:57:12;101604.0;;;23.66;34.80
48530;BME280;34927;37.302;-121.982;2022-11-25T02:58:17;101604.0;;;23.74;35.34
48530;BME280;34927;37.302;-121.982;2022-11-25T02:59:22;101604.0;;;23.84;37.42
48530;BME280;34927;37.302;-121.982;2022-11-25T03:00:27;101603.0;;;23.92;38.42
48530;BME280;34927;37.302;-121.982;2022-11-25T03:01:32;101607.0;;;24.08;39.52
48530;BME280;34927;37.302;-121.982;2022-11-25T03:02:36;101610.0;;;24.05;40.21
48530;BME280;34927;37.302;-121.982;2022-11-25T03:03:42;101607.0;;;23.97;40.37
48530;BME280;34927;37.302;-121.982;2022-11-25T03:04:46;101610.0;;;23.87;40.91
48530;BME280;34927;37.302;-121.982;2022-11-25T03:05:52;101608.0;;;23.83;40.93
48530;BME280;34927;37.302;-121.982;2022-11-25T03:06:56;101607.0;;;23.89;40.99
48530;BME280;34927;37.302;-121.982;2022-11-25T03:08:02;101604.0;;;23.92;41.76
48530;BME280;34927;37.302;-121.982;2022-11-25T03:09:06;101606.0;;;24.00;40.91
48530;BME280;34927;37.302;-121.982;2022-11-25T03:10:12;101609.0;;;23.85;41.38
48530;BME280;34927;37.302;-121.982;2022-11-25T03:11:17;101607.0;;;23.79;40.62
48530;BME280;34927;37.302;-121.982;2022-11-25T03:12:22;101608.0;;;23.64;41.62
48530;BME280;34927;37.302;-121.982;2022-11-25T03:13:27;101607.0;;;23.57;41.71
48530;BME280;34927;37.302;-121.982;2022-11-25T03:14:31;101612.0;;;23.38;41.79
48530;BME280;34927;37.302;-121.982;2022-11-25T03:15:36;101614.0;;;23.28;42.12
48530;BME280;34927;37.302;-121.982;2022-11-25T03:16:41;101619.0;;;23.25;41.38
48530;BME280;34927;37.302;-121.982;2022-11-25T03:17:46;101623.0;;;23.23;41.66
48530;BME280;34927;37.302;-121.982;2022-11-25T03:18:52;101625.0;;;23.19;41.38
48530;BME280;34927;37.302;-121.982;2022-11-25T03:19:56;101626.0;;;23.07;41.90
48530;BME280;34927;37.302;-121.982;2022-11-25T03:21:02;101628.0;;;22.99;41.82
48530;BME280;34927;37.302;-121.982;2022-11-25T03:22:06;101629.0;;;22.95;41.99
48530;BME280;34927;37.302;-121.982;2022-11-25T03:23:12;101626.0;;;22.87;42.17
48530;BME280;34927;37.302;-121.982;2022-11-25T03:24:17;101623.0;;;22.80;41.76
48530;BME280;34927;37.302;-121.982;2022-11-25T03:25:21;101621.0;;;22.65;41.65
48530;BME280;34927;37.302;-121.982;2022-11-25T03:26:27;101620.0;;;22.59;41.17
48530;BME280;34927;37.302;-121.982;2022-11-25T03:27:33;101622.0;;;22.80;40.09
48530;BME280;34927;37.302;-121.982;2022-11-25T03:28:37;101623.0;;;22.79;40.02
48530;BME280;34927;37.302;-121.982;2022-11-25T03:29:41;101627.0;;;22.75;39.75
48530;BME280;34927;37.302;-121.982;2022-11-25T03:30:47;101624.0;;;22.87;39.23
48530;BME280;34927;37.302;-121.982;2022-11-25T03:31:51;101626.0;;;22.89;39.39
48530;BME280;34927;37.302;-121.982;2022-11-25T03:32:57;101630.0;;;22.85;39.41
48530;BME280;34927;37.302;-121.982;2022-11-25T03:34:01;101631.0;;;22.80;39.33
48530;BME280;34927;37.302;-121.982;2022-11-25T03:35:08;101631.0;;;22.83;38.76
48530;BME280;34927;37.302;-121.982;2022-11-25T03:36:11;101634.0;;;22.86;38.53
48530;BME280;34927;37.302;-121.982;2022-11-25T03:37:16;101634.0;;;22.77;45.47
48530;BME280;34927;37.302;-121.982;2022-11-25T03:38:21;101638.0;;;22.90;47.22
48530;BME280;34927;37.302;-121.982;2022-11-25T03:39:27;101642.0;;;23.22;47.01
48530;BME280;34927;37.302;-121.982;2022-11-25T03:40:31;101645.0;;;23.33;48.82
48530;BME280;34927;37.302;-121.982;2022-11-25T03:41:36;101648.0;;;23.27;48.45
48530;BME280;34927;37.302;-121.982;2022-11-25T03:42:42;101650.0;;;23.29;47.34
48530;BME280;34927;37.302;-121.982;2022-11-25T03:43:47;101651.0;;;23.31;48.95
48530;BME280;34927;37.302;-121.982;2022-11-25T03:44:51;101654.0;;;23.23;49.04
48530;BME280;34927;37.302;-121.982;2022-11-25T03:45:57;101652.0;;;23.31;48.20
48530;BME280;34927;37.302;-121.982;2022-11-25T03:47:02;101655.0;;;23.38;46.90
48530;BME280;34927;37.302;-121.982;2022-11-25T03:48:07;101657.0;;;23.44;46.29
48530;BME280;34927;37.302;-121.982;2022-11-25T03:49:11;101658.0;;;23.26;46.49
48530;BME280;34927;37.302;-121.982;2022-11-25T03:50:17;101658.0;;;23.61;44.20
48530;BME280;34927;37.302;-121.982;2022-11-25T03:51:21;101656.0;;;23.62;44.47
48530;BME280;34927;37.302;-121.982;2022-11-25T03:52:26;101657.0;;;23.74;45.78
48530;BME280;34927;37.302;-121.982;2022-11-25T03:53:31;101655.0;;;23.75;46.17
48530;BME280;34927;37.302;-121.982;2022-11-25T03:54:37;101655.0;;;23.74;46.93
48530;BME280;34927;37.302;-121.982;2022-11-25T03:55:42;101656.0;;;23.81;47.41
48530;BME280;34927;37.302;-121.982;2022-11-25T03:56:46;101657.0;;;23.78;47.36
48530;BME280;34927;37.302;-121.982;2022-11-25T03:57:52;101659.0;;;23.78;47.04
48530;BME280;34927;37.302;-121.982;2022-11-25T03:58:56;101659.0;;;23.69;47.26
48530;BME280;34927;37.302;-121.982;2022-11-25T04:00:04;101660.0;;;23.76;47.18
48530;BME280;34927;37.302;-121.982;2022-11-25T04:01:07;101658.0;;;23.77;47.30
48530;BME280;34927;37.302;-121.982;2022-11-25T04:02:11;101658.0;;;23.81;48.33
48530;BME280;34927;37.302;-121.982;2022-11-25T04:03:17;101658.0;;;23.78;48.76
48530;BME280;34927;37.302;-121.982;2022-11-25T04:04:21;101658.0;;;23.53;48.49
48530;BME280;34927;37.302;-121.982;2022-11-25T04:05:27;101659.0;;;23.29;49.66
48530;BME280;34927;37.302;-121.982;2022-11-25T04:06:32;101660.0;;;23.31;49.27
48530;BME280;34927;37.302;-121.982;2022-11-25T04:07:36;101662.0;;;23.30;48.76
48530;BME280;34927;37.302;-121.982;2022-11-25T04:08:41;101663.0;;;23.29;48.69
48530;BME280;34927;37.302;-121.982;2022-11-25T04:09:47;101663.0;;;23.30;48.46
48530;BME280;34927;37.302;-121.982;2022-11-25T04:10:51;101664.0;;;23.14;48.86
48530;BME280;34927;37.302;-121.982;2022-11-25T04:11:57;101664.0;;;23.17;48.28
48530;BME280;34927;37.302;-121.982;2022-11-25T04:13:02;101662.0;;;23.09;48.33
48530;BME280;34927;37.302;-121.982;2022-11-25T04:14:06;101662.0;;;23.10;47.66
48530;BME280;34927;37.302;-121.982;2022-11-25T04:15:12;101664.0;;;22.95;47.01
48530;BME280;34927;37.302;-121.982;2022-11-25T04:16:22;101663.0;;;22.99;46.27
48530;BME280;34927;37.302;-121.982;2022-11-25T04:17:26;101664.0;;;22.91;47.97
48530;BME280;34927;37.302;-121.982;2022-11-25T04:18:31;101666.0;;;22.83;46.68
48530;BME280;34927;37.302;-121.982;2022-11-25T04:19:37;101669.0;;;22.90;47.61
48530;BME280;34927;37.302;-121.982;2022-11-25T04:20:41;101670.0;;;22.92;46.33
48530;BME280;34927;37.302;-121.982;2022-11-25T04:21:47;101671.0;;;22.87;46.35
48530;BME280;34927;37.302;-121.982;2022-11-25T04:22:51;101672.0;;;22.84;46.07
48530;BME280;34927;37.302;-121.982;2022-11-25T04:23:56;101673.0;;;22.81;45.34
48530;BME280;34927;37.302;-121.982;2022-11-25T04:25:02;101673.0;;;22.83;45.28
48530;BME280;34927;37.302;-121.982;2022-11-25T04:26:07;101676.0;;;22.80;45.04
48530;BME280;34927;37.302;-121.982;2022-11-25T04:27:12;101677.0;;;22.74;45.66
48530;BME280;34927;37.302;-121.982;2022-11-25T04:28:17;101678.0;;;22.68;45.10
48530;BME280;34927;37.302;-121.982;2022-11-25T04:29:22;101679.0;;;22.60;45.24
48530;BME280;34927;37.302;-121.982;2022-11-25T04:30:27;101681.0;;;22.60;44.52
48530;BME280;34927;37.302;-121.982;2022-11-25T04:31:32;101681.0;;;22.66;44.93
48530;BME280;34927;37.302;-121.982;2022-11-25T04:32:37;101683.0;;;22.65;44.03
48530;BME280;34927;37.302;-121.982;2022-11-25T04:33:42;101684.0;;;22.58;44.12
48530;BME280;34927;37.302;-121.982;2022-11-25T04:34:46;101685.0;;;22.55;43.74
48530;BME280;34927;37.302;-121.982;2022-11-25T04:35:51;101686.0;;;22.57;43.54
48530;BME280;34927;37.302;-121.982;2022-11-25T04:36:56;101688.0;;;22.47;43.98
48530;BME280;34927;37.302;-121.982;2022-11-25T04:38:01;101687.0;;;22.50;43.55
48530;BME280;34927;37.302;-121.982;2022-11-25T04:39:06;101689.0;;;22.48;43.87
48530;BME280;34927;37.302;-121.982;2022-11-25T04:40:12;101689.0;;;22.51;43.99
48530;BME280;34927;37.302;-121.982;2022-11-25T04:41:16;101689.0;;;22.42;43.14
48530;BME280;34927;37.302;-121.982;2022-11-25T04:42:22;101692.0;;;22.49;42.83
48530;BME280;34927;37.302;-121.982;2022-11-25T04:43:26;101692.0;;;22.46;42.24
48530;BME280;34927;37.302;-121.982;2022-11-25T04:44:31;101693.0;;;22.54;42.70
48530;BME280;34927;37.302;-121.982;2022-11-25T04:45:37;101693.0;;;22.46;42.82
48530;BME280;34927;37.302;-121.982;2022-11-25T04:46:42;101694.0;;;22.41;42.68
48530;BME280;34927;37.302;-121.982;2022-11-25T04:47:46;101695.0;;;22.38;42.50
48530;BME280;34927;37.302;-121.982;2022-11-25T04:48:52;101698.0;;;22.41;42.14
48530;BME280;34927;37.302;-121.982;2022-11-25T04:49:57;101700.0;;;22.34;42.61
48530;BME280;34927;37.302;-121.982;2022-11-25T04:51:01;101701.0;;;22.37;42.27
48530;BME280;34927;37.302;-121.982;2022-11-25T04:52:06;101707.0;;;22.31;43.02
48530;BME280;34927;37.302;-121.982;2022-11-25T04:53:12;101709.0;;;22.26;42.91
48530;BME280;34927;37.302;-121.982;2022-11-25T04:54:16;101712.0;;;22.25;42.58
48530;BME280;34927;37.302;-121.982;2022-11-25T04:55:21;101712.0;;;22.24;42.51
48530;BME280;34927;37.302;-121.982;2022-11-25T04:56:27;101715.0;;;22.29;42.11
48530;BME280;34927;37.302;-121.982;2022-11-25T04:57:32;101717.0;;;22.31;42.00
48530;BME280;34927;37.302;-121.982;2022-11-25T04:58:37;101721.0;;;22.24;42.18
48530;BME280;34927;37.302;-121.982;2022-11-25T04:59:42;101723.0;;;22.24;42.29
48530;BME280;34927;37.302;-121.982;2022-11-25T05:00:46;101727.0;;;22.28;42.49
48530;BME280;34927;37.302;-121.982;2022-11-25T05:01:52;101727.0;;;22.27;42.05
48530;BME280;34927;37.302;-121.982;2022-11-25T05:02:57;101728.0;;;22.22;41.94
48530;BME280;34927;37.302;-121.982;2022-11-25T05:04:02;101730.0;;;22.24;42.09
48530;BME280;34927;37.302;-121.982;2022-11-25T05:05:07;101729.0;;;22.27;41.86
48530;BME280;34927;37.302;-121.982;2022-11-25T05:06:11;101729.0;;;22.12;43.77
48530;BME280;34927;37.302;-121.982;2022-11-25T05:07:19;101730.0;;;22.18;43.47
48530;BME280;34927;37.302;-121.982;2022-11-25T05:08:21;101729.0;;;22.12;44.13
48530;BME280;34927;37.302;-121.982;2022-11-25T05:09:26;101729.0;;;22.15;43.82
48530;BME280;34927;37.302;-121.982;2022-11-25T05:10:32;101727.0;;;22.21;42.96
48530;BME280;34927;37.302;-121.982;2022-11-25T05:11:36;101725.0;;;22.24;43.51
48530;BME280;34927;37.302;-121.982;2022-11-25T05:12:41;101725.0;;;22.15;43.41
48530;BME280;34927;37.302;-121.982;2022-11-25T05:13:47;101724.0;;;22.22;43.36
48530;BME280;34927;37.302;-121.982;2022-11-25T05:14:52;101724.0;;;22.14;43.43
48530;BME280;34927;37.302;-121.982;2022-11-25T05:15:58;101722.0;;;22.07;43.13
48530;BME280;34927;37.302;-121.982;2022-11-25T05:17:02;101722.0;;;22.06;43.27
48530;BME280;34927;37.302;-121.982;2022-11-25T05:18:07;101722.0;;;22.06;43.08
48530;BME280;34927;37.302;-121.982;2022-11-25T05:19:11;101724.0;;;22.05;42.78
48530;BME280;34927;37.302;-121.982;2022-11-25T05:20:16;101723.0;;;22.09;42.58
48530;BME280;34927;37.302;-121.982;2022-11-25T05:21:22;101726.0;;;21.97;42.68
48530;BME280;34927;37.302;-121.982;2022-11-25T05:22:29;101727.0;;;22.01;42.61
48530;BME280;34927;37.302;-121.982;2022-11-25T05:23:32;101729.0;;;21.99;42.56
48530;BME280;34927;37.302;-121.982;2022-11-25T05:24:36;101728.0;;;21.99;42.22
48530;BME280;34927;37.302;-121.982;2022-11-25T05:25:42;101731.0;;;22.04;42.15
48530;BME280;34927;37.302;-121.982;2022-11-25T05:26:46;101734.0;;;22.02;42.22
48530;BME280;34927;37.302;-121.982;2022-11-25T05:27:51;101736.0;;;22.04;42.28
48530;BME280;34927;37.302;-121.982;2022-11-25T05:28:57;101739.0;;;22.01;42.06
48530;BME280;34927;37.302;-121.982;2022-11-25T05:30:02;101740.0;;;22.10;41.66
48530;BME280;34927;37.302;-121.982;2022-11-25T05:31:06;101743.0;;;22.05;41.81
48530;BME280;34927;37.302;-121.982;2022-11-25T05:32:12;101745.0;;;21.94;42.19
48530;BME280;34927;37.302;-121.982;2022-11-25T05:33:17;101748.0;;;22.02;41.94
48530;BME280;34927;37.302;-121.982;2022-11-25T05:34:21;101755.0;;;21.89;41.84
48530;BME280;34927;37.302;-121.982;2022-11-25T05:35:27;101753.0;;;21.95;41.56
48530;BME280;34927;37.302;-121.982;2022-11-25T05:36:31;101753.0;;;21.89;41.69